map of STC home
STC - Airport
Location
City:  St. Cloud, Minnesota, United States
Name:St. Cloud Regional
ICAO:KSTC
IATA:STC
FAA LID:STC

Details
Type:Airport (Part 139 Class I)
Use:Public/Civil
Latitude:4532'48"N (45.546556)
Longitude:9403'36"W (-94.059888)
Datum:WGS 1984
Elevation:1030 ft (314 m)
Variation:0.81E (WMM2015 magnetic declination)
-0.07 annual change
Runways:2
Longest:7000 × 150 ft (2134 × 45.5 m), paved

Time
Time Zone:UTC-6 (DST-5)
Local Time:

Weather
METAR:KSTC 141253Z 00000KT 10SM OVC015 M09/M11 A3001 RMK AO2 SLP188 T10891106
TAF:KSTC 141141Z 1412/1512 VRB03KT P6SM OVC020
FM141500 30004KT P6SM -SN OVC015
FM142000 31009KT P6SM OVC015
FM150300 29007KT P6SM OVC025

Related Locations
Nearby:
Farthest:MQZ: 10705 mi / 17228 km
Margaret River [Margaret River Airport], WA, AU

Find:

   beyond  
but within

Other Information
Maps:
NOTAMs:
Links:
Sources:

  
flag of United States
flag of Minnesota
  

Airport Diagram

Airport diagram for STC

Airport diagram PDF

Sectional Chart

Flight Planning
at skyvector.com

Satellite Image

Google Maps Satellite view

 

Copyright © 2004-2017 Karl L. Swartz. All rights reserved.
The Great Circle Mapper name and logo are trademarks of the Great Circle Mapper.
All other trademarks mentioned herein belong to their respective owners.
Please see credits for attibutions and further copyright information.

  Follow gcmap on Facebook Follow gcmap on Twitter Follow gcmap on Google+ GCmap on LinkedIn

hCard Microformat

Geo Microformat